Have a Safe July 4th! 

Flight Track Log - Related Links

Times and Time Zones

All times are in EDT time to prevent confusion due to time zone crossing. See the N727NE flight status page for this flight to view local times or setup timezone preferences in your user account.

Time Position Orientation Groundspeed Altitude Reporting Facility
EDT Latitude Longitude Course Direction KTS MPH feet Rate Location/Type
Mon 04:33:01 PM 41.5069 -82.9039 202° Southwest 118 136 4,700  Level Cleveland Center
Mon 04:33:32 PM 41.4922 -82.9117 202° Southwest 115 132 5,000 593 Climbing Cleveland Center
Mon 04:34:32 PM 41.4628 -82.9272 202° Southwest 116 133 5,600 545 Climbing Cleveland Center
Mon 04:35:33 PM 41.4331 -82.9483 208° Southwest 116 133 6,100 574 Climbing Cleveland Center
Mon 04:36:27 PM 41.4056 -82.9694 210° Southwest 122 140 6,700 574 Climbing Cleveland Center
Mon 04:37:28 PM 41.3781 -82.9906 210° Southwest 122 140 7,200 492 Climbing Cleveland Center
Mon 04:38:29 PM 41.3464 -83.0117 207° Southwest 122 140 7,700 446 Climbing Cleveland Center
Mon 04:39:29 PM 41.3144 -83.0353 209° Southwest 125 144 8,100 198 Climbing Cleveland Center
Mon 04:40:30 PM 41.2828 -83.0589 209° Southwest 140 161 8,100  Level Cleveland Center
Mon 04:41:30 PM 41.2467 -83.0853 209° Southwest 144 166 8,100 -50 Level Cleveland Center
Mon 04:42:31 PM 41.2086 -83.1086 205° Southwest 144 166 8,000 -49 Descending Cleveland Center
Mon 04:43:32 PM 41.1747 -83.1322 208° Southwest 142 163 8,000 47 Level Cleveland Center
Mon 04:44:38 PM 41.1431 -83.1558 209° Southwest 140 161 8,100 47 Climbing Cleveland Center
Mon 04:45:39 PM 41.1111 -83.1819 212° Southwest 136 157 8,100  Level Cleveland Center
Mon 04:46:40 PM 41.0753 -83.2056 206° Southwest 137 158 8,100 -52 Level Cleveland Center
Mon 04:47:34 PM 41.0392 -83.2289 206° Southwest 139 160 8,000  Descending Cleveland Center
Mon 04:48:35 PM 41.0072 -83.2550 212° Southwest 137 158 8,100 47 Climbing Cleveland Center
Mon 04:49:41 PM 40.9733 -83.2811 210° Southwest 138 159 8,100  Level Cleveland Center
Mon 04:50:36 PM 40.9394 -83.3044 207° Southwest 137 158 8,100 -52 Level Cleveland Center
Mon 04:51:37 PM 40.9033 -83.3278 206° Southwest 139 160 8,000 -50 Descending Cleveland Center
Mon 04:52:37 PM 40.8717 -83.3483 206° Southwest 138 159 8,000 21 Level Cleveland Center
Mon 04:54:00 PM 40.8328 -83.3749 207° Southwest  Level FlightAware Approximate
Mon 04:56:18 PM 40.7475 -83.4331 207° Southwest 138 159 8,100  Level Indianapolis Center
Mon 04:57:20 PM 40.7139 -83.4578 209° Southwest 138 159 8,100  Level Indianapolis Center
Mon 04:58:22 PM 40.6792 -83.4825 208° Southwest 140 161 8,100 -48 Level Indianapolis Center
Mon 04:59:24 PM 40.6439 -83.5069 208° Southwest 141 162 8,000 -48 Descending Indianapolis Center
Mon 05:00:26 PM 40.6094 -83.5314 208° Southwest 140 161 8,000  Level Indianapolis Center
Mon 05:01:00 PM 40.6362 -83.5088 207° Southwest  Level FlightAware Approximate
Mon 05:01:28 PM 40.5744 -83.5556 208° Southwest 141 162 8,000  Level Indianapolis Center
Mon 05:02:12 PM 40.5439 -83.5789 210° Southwest 141 162 8,000  Level Indianapolis Center
Mon 05:02:30 PM 40.5392 -83.5794 185° South 141 162 8,000 245 Level Indianapolis Center
Mon 05:03:01 PM 40.5153 -83.5972 210° Southwest 143 165 8,200 97 Climbing Indianapolis Center
Mon 05:03:32 PM 40.4983 -83.6089 208° Southwest 141 162 8,100  Descending Indianapolis Center
Mon 05:04:02 PM 40.4800 -83.6231 210° Southwest 142 163 8,200  Climbing Indianapolis Center
Mon 05:04:34 PM 40.4636 -83.6339 207° Southwest 141 162 8,100  Descending Indianapolis Center
Mon 05:05:02 PM 40.4447 -83.6486 211° Southwest 141 162 8,200  Climbing Indianapolis Center
Mon 05:05:36 PM 40.4278 -83.6586 204° Southwest 142 163 8,100  Descending Indianapolis Center
Mon 05:06:09 PM 40.4050 -83.6767 211° Southwest 143 165 8,200  Climbing Indianapolis Center
Mon 05:06:38 PM 40.3928 -83.6828 201° Southwest 142 163 8,100  Descending Indianapolis Center
Mon 05:07:10 PM 40.3697 -83.6994 209° Southwest 140 161 8,200  Climbing Indianapolis Center
Mon 05:07:40 PM 40.3569 -83.7083 208° Southwest 143 165 8,100  Descending Indianapolis Center
Mon 05:08:17 PM 40.3319 -83.7275 210° Southwest 143 165 8,200  Climbing Indianapolis Center
Mon 05:08:42 PM 40.3222 -83.7331 204° Southwest 143 165 8,100  Descending Indianapolis Center
Mon 05:09:06 PM 40.3014 -83.7456 205° Southwest 145 167 8,200  Climbing Indianapolis Center
Mon 05:09:44 PM 40.2858 -83.7564 208° Southwest 143 165 8,100 -98 Descending Indianapolis Center
Mon 05:10:07 PM 40.2658 -83.7711 209° Southwest 144 166 8,100 -98 Level Indianapolis Center
Mon 05:10:45 PM 40.2497 -83.7811 205° Southwest 144 166 8,000  Descending Indianapolis Center
Mon 05:11:08 PM 40.2306 -83.7967 212° Southwest 144 166 8,100  Climbing Indianapolis Center
Mon 05:11:47 PM 40.2083 -83.8100 205° Southwest 144 166 8,000  Descending Indianapolis Center
Mon 05:12:09 PM 40.1953 -83.8194 209° Southwest 142 163 8,100 -97 Climbing Indianapolis Center
Mon 05:12:49 PM 40.1736 -83.8358 210° Southwest 143 165 7,900 -91 Descending Indianapolis Center
Mon 05:13:15 PM 40.1553 -83.8500 211° Southwest 142 163 8,000  Climbing Indianapolis Center
Mon 05:13:51 PM 40.1400 -83.8614 210° Southwest 142 163 7,900  Descending Indianapolis Center
Mon 05:14:10 PM 40.1244 -83.8706 204° Southwest 141 162 8,000 97 Climbing Indianapolis Center
Mon 05:14:53 PM 40.1044 -83.8847 208° Southwest 141 162 8,000 98 Level Indianapolis Center
Mon 05:15:11 PM 40.0892 -83.8933 203° Southwest 140 161 8,100  Climbing Indianapolis Center
Mon 05:15:55 PM 40.0694 -83.9078 209° Southwest 141 162 8,000 -229 Descending Indianapolis Center
Mon 05:16:56 PM 40.0336 -83.9306 206° Southwest 141 162 7,700 -409 Descending Indianapolis Center
Mon 05:18:07 PM 39.9872 -83.9647 209° Southwest 145 167 7,100 -290 Descending Indianapolis Center
Mon 05:19:00 PM 39.9592 -83.9850 209° Southwest 141 162 7,100  Level Indianapolis Center
Mon 05:20:02 PM 39.9275 -84.0044 205° Southwest 133 153 7,100  Level Indianapolis Center
Mon 05:21:04 PM 39.8950 -84.0264 207° Southwest 130 150 7,100  Level Indianapolis Center
Mon 05:21:28 PM 39.8814 -84.0353 207° Southwest 130 150 7,100 -387 Level Indianapolis Center
Mon 05:22:06 PM 39.8617 -84.0489 208° Southwest 132 152 6,700 -500 Descending Indianapolis Center
Mon 05:22:28 PM 39.8439 -84.0603 206° Southwest 140 161 6,600 -590 Descending Indianapolis Center
Mon 05:23:07 PM 39.8267 -84.0733 210° Southwest 137 158 6,100 -655 Descending Indianapolis Center
Mon 05:23:23 PM 39.8128 -84.0808 203° Southwest 147 169 6,000 -677 Descending Indianapolis Center
Mon 05:24:09 PM 39.7908 -84.0961 208° Southwest 140 161 5,400 -627 Descending Indianapolis Center
Mon 05:24:30 PM 39.7731 -84.1081 207° Southwest 143 165 5,300 -526 Descending Indianapolis Center
Mon 05:25:06 PM 39.7511 -84.1214 205° Southwest 142 163 4,900 -408 Descending Indianapolis Center
Mon 05:26:13 PM 39.7153 -84.1447 207° Southwest 141 162 4,600 -269 Descending Indianapolis Center

Login

Don't have an account? Register now (free) for customized features, flight alerts, and more!